createdAt,value
2023-04-22T00:01:09.477Z,52.35
2023-04-22T00:03:36.734Z,52.56
2023-04-22T00:06:03.641Z,52.44
2023-04-22T00:08:30.083Z,52.40
2023-04-22T00:10:56.784Z,52.26
2023-04-22T00:13:23.219Z,52.54
2023-04-22T00:15:50.140Z,51.96
2023-04-22T00:18:16.588Z,52.43
2023-04-22T00:20:44.136Z,52.78
2023-04-22T00:23:11.805Z,52.25
2023-04-22T00:25:40.744Z,52.43
2023-04-22T00:28:07.626Z,52.70
2023-04-22T00:30:35.505Z,52.68
2023-04-22T00:33:02.112Z,53.15
2023-04-22T00:35:28.578Z,52.80
2023-04-22T00:37:55.019Z,52.74
2023-04-22T00:40:21.888Z,52.83
2023-04-22T00:42:50.732Z,52.99
2023-04-22T00:45:21.118Z,53.08
2023-04-22T00:47:49.022Z,52.64
2023-04-22T00:50:16.263Z,53.10
2023-04-22T00:52:42.818Z,53.17
2023-04-22T00:55:09.810Z,53.09
2023-04-22T00:57:37.101Z,53.16
2023-04-22T01:00:05.417Z,53.11
2023-04-22T01:02:32.709Z,53.88
2023-04-22T01:05:00.037Z,53.55
2023-04-22T01:07:26.596Z,53.25
2023-04-22T01:09:53.521Z,53.59
2023-04-22T01:12:20.016Z,53.98
2023-04-22T01:14:46.579Z,53.85
2023-04-22T01:17:14.370Z,53.63
2023-04-22T01:19:43.388Z,54.01
2023-04-22T01:22:13.004Z,54.05
2023-04-22T01:24:39.753Z,53.94
2023-04-22T01:27:06.364Z,54.68
2023-04-22T01:29:33.210Z,54.67
2023-04-22T01:32:00.677Z,54.33
2023-04-22T01:34:28.240Z,54.15
2023-04-22T01:36:54.928Z,54.68
2023-04-22T01:39:21.640Z,54.01
2023-04-22T01:41:48.477Z,54.80
2023-04-22T01:44:14.929Z,54.73
2023-04-22T01:46:41.364Z,54.59
2023-04-22T01:49:07.771Z,54.74
2023-04-22T01:51:34.270Z,55.11
2023-04-22T01:54:03.896Z,55.28
2023-04-22T01:56:30.344Z,55.14
2023-04-22T01:58:56.801Z,55.47
2023-04-22T02:01:23.252Z,55.38
2023-04-22T02:03:49.770Z,55.50
2023-04-22T02:06:16.229Z,55.35
2023-04-22T02:08:42.644Z,55.89
2023-04-22T02:11:09.129Z,55.23
2023-04-22T02:13:39.877Z,55.75
2023-04-22T02:16:07.027Z,55.37
2023-04-22T02:18:33.678Z,55.30
2023-04-22T02:21:00.335Z,55.55
2023-04-22T02:23:27.574Z,56.29
2023-04-22T02:25:55.829Z,56.00
2023-04-22T02:28:22.845Z,56.07
2023-04-22T02:30:49.480Z,56.54
2023-04-22T02:33:15.972Z,56.89
2023-04-22T02:35:42.472Z,56.87
2023-04-22T02:38:08.852Z,56.58
2023-04-22T02:40:35.416Z,56.90
2023-04-22T02:43:01.873Z,56.91
2023-04-22T02:45:28.508Z,56.96
2023-04-22T02:47:54.976Z,57.27
2023-04-22T02:50:21.728Z,57.22
2023-04-22T02:52:48.188Z,57.36
2023-04-22T02:55:14.627Z,57.49
2023-04-22T02:57:41.164Z,57.15
2023-04-22T03:00:08.372Z,57.52
2023-04-22T03:02:35.025Z,57.54
2023-04-22T03:05:01.985Z,57.49
2023-04-22T03:07:28.472Z,57.80
2023-04-22T03:09:55.880Z,57.40
2023-04-22T03:12:22.397Z,57.86
2023-04-22T03:14:48.929Z,57.87
2023-04-22T03:17:15.492Z,57.37
2023-04-22T03:19:42.373Z,57.44
2023-04-22T03:22:09.073Z,57.52
2023-04-22T03:24:35.685Z,57.02
2023-04-22T03:27:02.345Z,57.32
2023-04-22T03:29:28.761Z,57.39
2023-04-22T03:31:55.335Z,57.14
2023-04-22T03:34:22.132Z,57.45
2023-04-22T03:36:48.545Z,57.37
2023-04-22T03:39:15.010Z,57.23
2023-04-22T03:41:42.169Z,57.03
2023-04-22T03:44:08.586Z,57.02
2023-04-22T03:46:35.058Z,57.74
2023-04-22T03:49:01.662Z,57.72
2023-04-22T03:51:28.984Z,57.64
2023-04-22T03:53:55.636Z,57.64
2023-04-22T03:56:22.244Z,57.52
2023-04-22T03:58:48.634Z,57.46
2023-04-22T04:01:15.058Z,57.42
2023-04-22T04:03:41.953Z,57.96
2023-04-22T04:06:09.462Z,57.78
2023-04-22T04:08:35.896Z,58.22
2023-04-22T04:11:02.303Z,58.15
2023-04-22T04:13:32.137Z,58.17
2023-04-22T04:16:01.508Z,58.45
2023-04-22T04:18:29.508Z,58.29
2023-04-22T04:20:56.467Z,58.45
2023-04-22T04:23:23.339Z,59.02
2023-04-22T04:25:49.911Z,58.84
2023-04-22T04:28:17.601Z,59.21
2023-04-22T04:30:44.072Z,59.38
2023-04-22T04:33:12.492Z,59.21
2023-04-22T04:35:39.368Z,59.48
2023-04-22T04:38:06.159Z,58.78
2023-04-22T04:40:35.883Z,59.18
2023-04-22T04:43:02.559Z,59.37
2023-04-22T04:45:30.083Z,59.01
2023-04-22T04:47:56.775Z,58.77
2023-04-22T04:50:23.809Z,59.10
2023-04-22T04:52:50.832Z,58.81
2023-04-22T04:55:19.078Z,58.98
2023-04-22T04:57:46.356Z,59.00
2023-04-22T05:00:14.177Z,58.54
2023-04-22T05:02:41.257Z,58.30
2023-04-22T05:05:09.010Z,58.50
2023-04-22T05:07:35.561Z,58.15
2023-04-22T05:10:03.001Z,58.31
2023-04-22T05:12:32.960Z,58.03
2023-04-22T05:15:02.850Z,57.87
2023-04-22T05:17:29.546Z,57.23
2023-04-22T05:19:56.025Z,57.50
2023-04-22T05:22:22.614Z,57.55
2023-04-22T05:24:49.132Z,56.56
2023-04-22T05:27:16.221Z,56.38
2023-04-22T05:29:42.802Z,56.11
2023-04-22T05:32:09.648Z,56.27
2023-04-22T05:34:36.106Z,56.58
2023-04-22T05:37:03.812Z,55.58
2023-04-22T05:39:30.277Z,55.46
2023-04-22T05:41:56.676Z,55.19
2023-04-22T05:44:23.202Z,55.31
2023-04-22T05:46:49.595Z,55.03
2023-04-22T05:49:16.132Z,54.64
2023-04-22T05:51:42.679Z,53.28
2023-04-22T05:54:09.140Z,53.49
2023-04-22T05:56:35.577Z,53.28
2023-04-22T05:59:02.122Z,52.92
2023-04-22T06:01:28.507Z,53.28
2023-04-22T06:03:55.306Z,52.82
2023-04-22T06:06:21.908Z,52.27
2023-04-22T06:08:48.390Z,53.03
2023-04-22T06:11:14.801Z,52.58
2023-04-22T06:13:41.208Z,52.04
2023-04-22T06:18:37.967Z,51.35
2023-04-22T06:21:04.970Z,50.89
2023-04-22T06:23:31.368Z,50.87
2023-04-22T06:26:01.612Z,50.46
2023-04-22T06:28:28.319Z,50.78
2023-04-22T06:30:54.845Z,50.01
2023-04-22T06:33:21.363Z,49.70
2023-04-22T06:35:47.951Z,49.82
2023-04-22T06:38:14.446Z,49.45
2023-04-22T06:40:40.878Z,49.07
2023-04-22T06:43:07.409Z,49.20
2023-04-22T06:45:33.886Z,49.08
2023-04-22T06:48:03.999Z,49.49
2023-04-22T06:50:30.687Z,48.21
2023-04-22T06:52:57.079Z,48.70
2023-04-22T06:55:24.086Z,48.57
2023-04-22T06:57:51.369Z,47.79
2023-04-22T07:00:18.054Z,47.32
2023-04-22T07:02:44.661Z,46.90
2023-04-22T07:05:11.165Z,46.67
2023-04-22T07:07:37.657Z,46.35
2023-04-22T07:10:04.558Z,45.58
2023-04-22T07:12:31.164Z,46.24
2023-04-22T07:14:57.617Z,45.16
2023-04-22T07:17:24.062Z,45.39
2023-04-22T07:19:50.640Z,45.45
2023-04-22T07:22:36.216Z,45.18
2023-04-22T07:25:06.037Z,44.67
2023-04-22T07:27:33.806Z,45.29
2023-04-22T07:30:01.992Z,45.37
2023-04-22T07:32:28.471Z,45.21
2023-04-22T07:34:54.862Z,45.46
2023-04-22T07:37:22.051Z,45.17
2023-04-22T07:39:48.625Z,45.28
2023-04-22T07:42:15.054Z,45.32
2023-04-22T07:44:41.769Z,45.05
2023-04-22T07:47:11.384Z,44.66
2023-04-22T07:49:38.280Z,45.58
2023-04-22T07:52:04.944Z,45.36
2023-04-22T07:54:31.328Z,43.97
2023-04-22T07:56:58.301Z,43.70
2023-04-22T07:59:25.664Z,44.43
2023-04-22T08:01:52.244Z,43.65
2023-04-22T08:04:23.032Z,43.98
2023-04-22T08:06:50.210Z,43.84
2023-04-22T08:09:16.611Z,43.67
2023-04-22T08:11:43.003Z,44.10
2023-04-22T08:14:09.498Z,43.83
2023-04-22T08:16:35.961Z,44.04
2023-04-22T08:19:02.469Z,43.18
2023-04-22T08:21:28.871Z,44.11
2023-04-22T08:23:55.329Z,44.58
2023-04-22T08:26:21.757Z,44.15
2023-04-22T08:28:48.179Z,44.69
2023-04-22T08:31:14.659Z,44.17
2023-04-22T08:33:41.759Z,43.63
2023-04-22T08:36:09.643Z,43.35
2023-04-22T08:38:36.104Z,43.94
2023-04-22T08:41:05.492Z,42.82
2023-04-22T08:43:33.067Z,43.12
2023-04-22T08:45:59.606Z,43.15
2023-04-22T08:48:26.776Z,43.80
2023-04-22T08:50:54.249Z,43.57
2023-04-22T08:53:23.682Z,43.58
2023-04-22T08:55:51.770Z,43.83
2023-04-22T08:58:18.269Z,42.42
2023-04-22T09:00:45.227Z,42.50
2023-04-22T09:03:12.053Z,42.93
2023-04-22T09:05:40.882Z,41.95
2023-04-22T09:08:08.143Z,41.19
2023-04-22T09:10:41.054Z,41.38
2023-04-22T09:13:07.699Z,41.34
2023-04-22T09:15:34.395Z,42.22
2023-04-22T09:18:03.384Z,40.54
2023-04-22T09:20:37.995Z,40.37
2023-04-22T09:23:07.733Z,40.16
2023-04-22T09:25:37.567Z,39.62
2023-04-22T09:28:04.366Z,39.33
2023-04-22T09:30:33.349Z,39.51
2023-04-22T09:33:04.264Z,38.61
2023-04-22T09:35:37.397Z,37.16
2023-04-22T09:38:08.812Z,37.97
2023-04-22T09:40:36.886Z,36.36
2023-04-22T09:43:06.614Z,36.44
2023-04-22T09:45:42.688Z,37.22
2023-04-22T09:48:13.241Z,35.75
2023-04-22T09:50:43.375Z,34.28
2023-04-22T09:53:12.460Z,34.03
2023-04-22T09:55:43.517Z,33.31
2023-04-22T09:58:14.592Z,33.89
2023-04-22T10:00:44.609Z,33.31
2023-04-22T10:03:11.446Z,33.01
2023-04-22T10:05:38.364Z,32.66
2023-04-22T10:08:06.272Z,31.84
2023-04-22T10:10:33.106Z,31.58
2023-04-22T10:13:00.720Z,32.11
2023-04-22T10:15:42.183Z,31.93
2023-04-22T10:18:12.025Z,32.56
2023-04-22T10:20:40.861Z,32.15
2023-04-22T10:23:18.294Z,31.74
2023-04-22T10:25:49.096Z,32.07
2023-04-22T10:28:16.882Z,30.94
2023-04-22T10:30:43.771Z,31.83
2023-04-22T10:33:28.526Z,30.79
2023-04-22T10:36:10.437Z,30.89
2023-04-22T10:38:39.320Z,31.03
2023-04-22T10:41:06.165Z,30.98
2023-04-22T10:43:46.595Z,32.02
2023-04-22T10:46:37.900Z,30.35
2023-04-22T10:49:12.901Z,31.00
2023-04-22T10:51:44.134Z,30.74
2023-04-22T10:54:26.931Z,30.67
2023-04-22T10:57:04.632Z,29.30
2023-04-22T10:59:32.742Z,28.79
2023-04-22T11:02:03.728Z,28.83
2023-04-22T11:04:30.414Z,28.84
2023-04-22T11:07:30.693Z,29.63
2023-04-22T11:10:07.896Z,30.04
2023-04-22T11:12:41.829Z,28.96
2023-04-22T11:15:19.963Z,29.94
2023-04-22T11:17:50.718Z,29.24
2023-04-22T11:20:17.858Z,28.99
2023-04-22T11:22:47.683Z,28.84
2023-04-22T11:25:14.562Z,29.27
2023-04-22T11:27:43.648Z,29.68
2023-04-22T11:30:20.537Z,29.46
2023-04-22T11:32:49.277Z,29.11
2023-04-22T11:35:19.110Z,29.33
2023-04-22T11:37:48.996Z,28.71
2023-04-22T11:40:30.909Z,28.84
2023-04-22T11:42:59.554Z,29.26
2023-04-22T11:45:27.060Z,28.94
2023-04-22T11:47:54.224Z,28.73
2023-04-22T11:50:23.661Z,28.70
2023-04-22T11:53:01.501Z,29.16
2023-04-22T11:55:36.258Z,28.80
2023-04-22T11:58:07.211Z,28.94
2023-04-22T12:00:41.840Z,28.91
2023-04-22T12:03:15.201Z,29.49
2023-04-22T12:05:51.359Z,28.09
2023-04-22T12:08:20.429Z,27.98
2023-04-22T12:10:55.981Z,28.31
2023-04-22T12:13:28.789Z,28.91
2023-04-22T12:16:00.353Z,28.05
2023-04-22T12:18:32.666Z,27.53
2023-04-22T12:21:23.760Z,27.79
2023-04-22T12:23:55.103Z,27.85
2023-04-22T12:26:26.626Z,28.70
2023-04-22T12:28:54.641Z,28.62
2023-04-22T12:31:21.522Z,28.95
2023-04-22T12:33:48.253Z,29.96
2023-04-22T12:36:15.326Z,29.57
2023-04-22T12:38:41.739Z,30.27
2023-04-22T12:41:08.376Z,31.18
2023-04-22T12:43:37.749Z,30.34
2023-04-22T12:46:07.517Z,31.27
2023-04-22T12:48:34.360Z,31.25
2023-04-22T12:51:00.853Z,30.42
2023-04-22T12:53:28.197Z,31.21
2023-04-22T12:55:55.504Z,31.61
2023-04-22T12:58:21.923Z,31.56
2023-04-22T13:00:48.336Z,31.89
2023-04-22T13:03:14.908Z,31.90
2023-04-22T13:05:41.570Z,31.93
2023-04-22T13:08:08.297Z,31.56
2023-04-22T13:10:35.261Z,31.33
2023-04-22T13:13:16.733Z,31.18
2023-04-22T13:15:44.034Z,32.18
2023-04-22T13:18:10.699Z,31.51
2023-04-22T13:20:37.384Z,32.56
2023-04-22T13:23:04.674Z,31.14
2023-04-22T13:25:31.602Z,31.95
2023-04-22T13:27:58.041Z,32.20
2023-04-22T13:30:24.497Z,32.67
2023-04-22T13:32:51.970Z,32.49
2023-04-22T13:35:18.594Z,31.83
2023-04-22T13:37:46.215Z,32.67
2023-04-22T13:40:12.831Z,32.40
2023-04-22T13:42:39.391Z,31.14
2023-04-22T13:45:07.034Z,31.91
2023-04-22T13:47:33.565Z,31.25
2023-04-22T13:50:01.670Z,31.44
2023-04-22T13:52:28.441Z,32.71
2023-04-22T13:54:54.948Z,29.69
2023-04-22T13:57:22.012Z,29.57
2023-04-22T13:59:49.704Z,29.71
2023-04-22T14:02:16.263Z,29.31
2023-04-22T14:04:42.875Z,30.48
2023-04-22T14:07:09.348Z,30.79
2023-04-22T14:09:36.546Z,30.40
2023-04-22T14:12:04.345Z,30.06
2023-04-22T14:14:31.023Z,30.28
2023-04-22T14:16:57.836Z,30.78
2023-04-22T14:19:24.974Z,31.02
2023-04-22T14:21:51.440Z,30.40
2023-04-22T14:24:19.380Z,30.27
2023-04-22T14:26:45.938Z,30.10
2023-04-22T14:29:13.914Z,30.75
2023-04-22T14:31:40.522Z,30.94
2023-04-22T14:34:06.946Z,31.45
2023-04-22T14:36:33.408Z,31.84
2023-04-22T14:38:59.930Z,31.46
2023-04-22T14:41:26.448Z,30.83
2023-04-22T14:43:52.929Z,31.23
2023-04-22T14:46:19.459Z,30.95
2023-04-22T14:48:46.040Z,29.88
2023-04-22T14:51:12.584Z,30.06
2023-04-22T14:53:39.087Z,30.20
2023-04-22T14:56:05.524Z,30.35
2023-04-22T14:58:32.064Z,30.25
2023-04-22T15:01:00.153Z,31.24
2023-04-22T15:03:27.411Z,30.30
2023-04-22T15:05:55.591Z,30.52
2023-04-22T15:08:25.150Z,30.96
2023-04-22T15:10:51.691Z,31.45
2023-04-22T15:13:18.228Z,31.67
2023-04-22T15:15:44.672Z,31.20
2023-04-22T15:18:11.527Z,32.17
2023-04-22T15:20:38.299Z,30.64
2023-04-22T15:23:04.767Z,32.37
2023-04-22T15:25:31.928Z,31.36
2023-04-22T15:27:58.372Z,31.51
2023-04-22T15:30:25.014Z,31.17
2023-04-22T15:32:51.560Z,31.55
2023-04-22T15:35:18.256Z,31.08
2023-04-22T15:37:45.650Z,30.85
2023-04-22T15:40:12.076Z,30.80
2023-04-22T15:42:41.654Z,31.55
2023-04-22T15:45:08.674Z,31.40
2023-04-22T15:47:36.062Z,32.11
2023-04-22T15:50:08.599Z,31.24
2023-04-22T15:52:35.979Z,31.94
2023-04-22T15:55:02.459Z,32.01
2023-04-22T15:57:33.157Z,32.04
2023-04-22T16:00:10.919Z,32.27
2023-04-22T16:02:39.209Z,32.72
2023-04-22T16:05:06.014Z,33.03
2023-04-22T16:07:32.452Z,33.01
2023-04-22T16:09:59.319Z,32.89
2023-04-22T16:12:25.720Z,33.42
2023-04-22T16:14:52.184Z,33.76
2023-04-22T16:17:20.807Z,34.26
2023-04-22T16:19:47.504Z,33.69
2023-04-22T16:22:13.892Z,34.47
2023-04-22T16:24:43.310Z,34.59
2023-04-22T16:27:10.710Z,34.70
2023-04-22T16:29:37.184Z,34.77
2023-04-22T16:32:03.851Z,35.51
2023-04-22T16:34:30.662Z,35.37
2023-04-22T16:36:57.204Z,34.06
2023-04-22T16:39:23.606Z,34.85
2023-04-22T16:41:50.138Z,34.82
2023-04-22T16:44:16.692Z,34.99
2023-04-22T16:46:43.258Z,34.98
2023-04-22T16:49:10.528Z,35.35
2023-04-22T16:51:37.415Z,34.72
2023-04-22T16:54:04.183Z,34.52
2023-04-22T16:56:30.640Z,34.38
2023-04-22T16:58:57.039Z,34.32
2023-04-22T17:01:26.407Z,33.40
2023-04-22T17:03:53.098Z,33.38
2023-04-22T17:06:19.652Z,33.60
2023-04-22T17:08:46.072Z,33.89
2023-04-22T17:11:12.474Z,34.05
2023-04-22T17:13:39.002Z,34.32
2023-04-22T17:16:06.505Z,35.00
2023-04-22T17:18:33.167Z,35.01
2023-04-22T17:20:59.617Z,35.55
2023-04-22T17:23:26.918Z,35.12
2023-04-22T17:25:53.513Z,35.63
2023-04-22T17:28:19.960Z,35.90
2023-04-22T17:30:46.630Z,35.93
2023-04-22T17:33:13.085Z,36.21
2023-04-22T17:35:39.713Z,36.35
2023-04-22T17:38:06.349Z,36.55
2023-04-22T17:40:33.028Z,36.36
2023-04-22T17:42:59.542Z,37.23
2023-04-22T17:45:26.125Z,37.09
2023-04-22T17:47:52.672Z,37.52
2023-04-22T17:50:19.657Z,37.08
2023-04-22T17:52:46.229Z,37.74
2023-04-22T17:55:12.682Z,37.63
2023-04-22T17:57:39.346Z,37.78
2023-04-22T18:00:06.556Z,37.89
2023-04-22T18:02:33.190Z,38.25
2023-04-22T18:04:59.760Z,38.07
2023-04-22T18:07:26.246Z,38.73
2023-04-22T18:09:52.653Z,38.52
2023-04-22T18:12:23.979Z,38.59
2023-04-22T18:14:50.381Z,39.27
2023-04-22T18:17:20.072Z,39.01
2023-04-22T18:19:50.929Z,39.31
2023-04-22T18:22:18.520Z,39.05
2023-04-22T18:24:45.006Z,38.96
2023-04-22T18:27:11.531Z,39.38
2023-04-22T18:29:38.537Z,39.20
2023-04-22T18:32:05.489Z,39.68
2023-04-22T18:34:32.036Z,39.32
2023-04-22T18:36:58.427Z,39.62
2023-04-22T18:39:24.876Z,39.82
2023-04-22T18:41:51.839Z,39.50
2023-04-22T18:44:18.840Z,40.18
2023-04-22T18:46:45.366Z,39.92
2023-04-22T18:49:12.084Z,40.45
2023-04-22T18:51:41.294Z,40.09
2023-04-22T18:54:08.643Z,40.38
2023-04-22T18:56:35.207Z,39.91
2023-04-22T18:59:01.677Z,40.40
2023-04-22T19:01:28.694Z,40.92
2023-04-22T19:03:55.310Z,40.46
2023-04-22T19:06:21.762Z,41.01
2023-04-22T19:08:48.832Z,40.54
2023-04-22T19:11:17.202Z,42.10
2023-04-22T19:13:44.061Z,45.52
2023-04-22T19:16:10.905Z,48.30
2023-04-22T19:18:37.641Z,51.29
2023-04-22T19:21:04.991Z,51.63
2023-04-22T19:23:31.489Z,52.14
2023-04-22T19:25:57.947Z,54.06
2023-04-22T19:28:24.407Z,55.17
2023-04-22T19:30:51.670Z,57.21
2023-04-22T19:33:18.350Z,54.82
2023-04-22T19:35:44.800Z,56.81
2023-04-22T19:38:12.130Z,55.54
2023-04-22T19:40:38.640Z,55.66
2023-04-22T19:43:05.344Z,56.06
2023-04-22T19:45:32.131Z,54.57
2023-04-22T19:47:58.810Z,55.88
2023-04-22T19:50:25.846Z,56.41
2023-04-22T19:53:03.367Z,55.14
2023-04-22T19:55:30.481Z,56.72
2023-04-22T19:57:58.071Z,58.90
2023-04-22T20:00:24.983Z,60.20
2023-04-22T20:02:51.945Z,61.25
2023-04-22T20:05:19.238Z,61.56
2023-04-22T20:07:47.363Z,61.73
2023-04-22T20:10:14.336Z,62.01
2023-04-22T20:12:41.387Z,61.71
2023-04-22T20:15:09.143Z,61.96
2023-04-22T20:17:38.725Z,61.82
2023-04-22T20:20:07.651Z,62.27
2023-04-22T20:22:34.878Z,61.62
2023-04-22T20:25:04.656Z,61.92
2023-04-22T20:27:32.528Z,61.49
2023-04-22T20:30:00.331Z,61.57
2023-04-22T20:32:28.412Z,61.50
2023-04-22T20:34:55.872Z,61.31
2023-04-22T20:37:23.681Z,61.20
2023-04-22T20:39:51.423Z,61.35
2023-04-22T20:42:19.662Z,61.78
2023-04-22T20:44:46.318Z,61.33
2023-04-22T20:47:13.698Z,61.29
2023-04-22T20:49:42.378Z,61.55
2023-04-22T20:52:10.830Z,61.45
2023-04-22T20:54:38.114Z,61.67
2023-04-22T20:57:05.987Z,61.93
2023-04-22T20:59:33.547Z,61.86
2023-04-22T21:02:00.640Z,61.95
2023-04-22T21:04:27.869Z,62.10
2023-04-22T21:06:55.585Z,61.99
2023-04-22T21:09:24.708Z,62.25
2023-04-22T21:11:54.657Z,62.13
2023-04-22T21:14:22.198Z,62.30
2023-04-22T21:17:17.304Z,62.17
2023-04-22T21:19:48.877Z,62.74
2023-04-22T21:22:19.430Z,63.06
2023-04-22T21:24:48.385Z,63.34
2023-04-22T21:27:16.608Z,63.58
2023-04-22T21:29:43.363Z,64.10
2023-04-22T21:32:10.175Z,64.12
2023-04-22T21:34:37.763Z,64.46
2023-04-22T21:37:05.391Z,64.82
2023-04-22T21:39:31.885Z,64.98
2023-04-22T21:41:58.575Z,65.52
2023-04-22T21:44:25.090Z,65.82
2023-04-22T21:46:51.585Z,66.07
2023-04-22T21:49:18.417Z,66.18
2023-04-22T21:51:44.944Z,66.27
2023-04-22T21:54:11.465Z,66.84
2023-04-22T21:56:37.921Z,67.38
2023-04-22T21:59:04.424Z,67.30
2023-04-22T22:01:30.961Z,67.42
2023-04-22T22:03:57.561Z,67.44
2023-04-22T22:06:24.127Z,68.13
2023-04-22T22:08:50.552Z,68.91
2023-04-22T22:11:27.495Z,68.86
2023-04-22T22:13:56.596Z,69.48
2023-04-22T22:16:23.394Z,69.52
2023-04-22T22:18:50.588Z,69.83
2023-04-22T22:21:17.333Z,69.97
2023-04-22T22:23:43.757Z,69.76
2023-04-22T22:26:10.313Z,70.13
2023-04-22T22:28:36.829Z,70.86
2023-04-22T22:31:03.322Z,70.76
2023-04-22T22:33:29.850Z,71.12
2023-04-22T22:35:56.695Z,70.99
2023-04-22T22:38:23.250Z,71.02
2023-04-22T22:40:49.684Z,71.33
2023-04-22T22:43:16.549Z,71.54
2023-04-22T22:45:43.118Z,71.60
2023-04-22T22:48:09.721Z,71.79
2023-04-22T22:50:36.299Z,72.11
2023-04-22T22:53:02.789Z,72.26
2023-04-22T22:55:29.248Z,72.07
2023-04-22T22:57:55.717Z,72.03
2023-04-22T23:00:22.250Z,71.98
2023-04-22T23:02:49.004Z,72.41
2023-04-22T23:05:15.617Z,72.76
2023-04-22T23:07:42.055Z,72.71
2023-04-22T23:10:09.225Z,73.04
2023-04-22T23:12:35.688Z,73.18
2023-04-22T23:15:02.328Z,73.83
2023-04-22T23:17:28.838Z,74.18
2023-04-22T23:19:55.743Z,73.90
2023-04-22T23:22:23.290Z,74.49
2023-04-22T23:24:50.313Z,74.47
2023-04-22T23:27:17.465Z,74.39
2023-04-22T23:29:44.323Z,74.23
2023-04-22T23:32:14.938Z,74.58
2023-04-22T23:34:44.814Z,74.13
2023-04-22T23:37:13.526Z,74.44
2023-04-22T23:39:41.854Z,74.52
2023-04-22T23:42:08.529Z,74.54
2023-04-22T23:44:34.958Z,74.83
2023-04-22T23:47:01.634Z,74.91
2023-04-22T23:49:28.854Z,75.03
2023-04-22T23:51:55.806Z,75.35
2023-04-22T23:54:22.531Z,74.94
2023-04-22T23:56:49.443Z,75.56
2023-04-22T23:59:16.156Z,75.43
